createdAt,value
2018-05-14T00:00:47.761Z,4.30
2018-05-14T00:03:15.235Z,4.50
2018-05-14T00:05:42.726Z,4.90
2018-05-14T00:08:10.285Z,5.00
2018-05-14T00:10:37.863Z,5.60
2018-05-14T00:13:05.433Z,5.20
2018-05-14T00:15:32.914Z,6.23
2018-05-14T00:18:00.388Z,6.43
2018-05-14T00:20:27.953Z,6.60
2018-05-14T00:22:55.525Z,7.30
2018-05-14T00:25:23.001Z,6.90
2018-05-14T00:27:50.556Z,7.73
2018-05-14T00:30:18.130Z,8.20
2018-05-14T00:32:45.597Z,8.77
2018-05-14T00:35:13.185Z,8.50
2018-05-14T00:37:40.754Z,8.83
2018-05-14T00:40:08.249Z,9.27
2018-05-14T00:42:35.716Z,9.37
2018-05-14T00:45:03.216Z,10.30
2018-05-14T00:47:30.725Z,11.60
2018-05-14T00:49:58.306Z,11.27
2018-05-14T00:52:25.869Z,11.37
2018-05-14T00:55:05.343Z,13.40
2018-05-14T00:57:32.826Z,14.47
2018-05-14T01:00:00.385Z,14.67
2018-05-14T01:02:27.952Z,15.70
2018-05-14T01:04:55.435Z,16.83
2018-05-14T01:07:22.980Z,18.50
2018-05-14T01:09:50.553Z,20.63
2018-05-14T01:12:18.029Z,19.77
2018-05-14T01:14:45.516Z,22.50
2018-05-14T01:17:13.007Z,22.47
2018-05-14T01:19:40.557Z,24.70
2018-05-14T01:22:08.136Z,26.67
2018-05-14T01:24:35.677Z,27.77
2018-05-14T01:27:03.244Z,28.23
2018-05-14T01:29:30.825Z,29.27
2018-05-14T01:31:58.322Z,30.03
2018-05-14T01:34:25.816Z,33.20
2018-05-14T01:36:53.350Z,32.90
2018-05-14T01:39:20.921Z,37.30
2018-05-14T01:41:48.397Z,37.80
2018-05-14T01:44:15.954Z,39.57
2018-05-14T01:46:43.533Z,41.23
2018-05-14T01:49:11.100Z,44.07
2018-05-14T01:51:38.696Z,45.17
2018-05-14T01:54:06.236Z,48.50
2018-05-14T01:56:33.821Z,53.40
2018-05-14T01:59:01.312Z,54.80
2018-05-14T02:01:28.852Z,53.83
2018-05-14T02:03:56.428Z,54.47
2018-05-14T02:06:24.000Z,61.13
2018-05-14T02:08:51.592Z,59.53
2018-05-14T02:11:19.149Z,60.93
2018-05-14T02:13:46.717Z,61.40
2018-05-14T02:16:14.215Z,63.30
2018-05-14T02:18:41.693Z,62.77
2018-05-14T02:21:09.241Z,62.30
2018-05-14T02:23:36.726Z,70.20
2018-05-14T02:26:04.229Z,67.27
2018-05-14T02:28:32.522Z,61.73
2018-05-14T02:30:59.991Z,62.90
2018-05-14T02:33:28.331Z,60.20
2018-05-14T02:35:55.900Z,57.23
2018-05-14T02:38:23.376Z,60.67
2018-05-14T02:40:50.936Z,58.77
2018-05-14T02:43:18.420Z,56.87
2018-05-14T02:45:45.977Z,57.30
2018-05-14T02:48:13.559Z,54.97
2018-05-14T02:50:41.127Z,56.10
2018-05-14T02:53:08.713Z,53.87
2018-05-14T02:55:36.274Z,54.60
2018-05-14T02:58:03.748Z,50.10
2018-05-14T03:00:31.246Z,49.23
2018-05-14T03:02:58.721Z,50.20
2018-05-14T03:05:27.066Z,49.67
2018-05-14T03:07:54.633Z,48.13
2018-05-14T03:10:22.267Z,44.77
2018-05-14T03:12:49.865Z,42.83
2018-05-14T03:15:18.103Z,42.13
2018-05-14T03:17:45.644Z,40.50
2018-05-14T03:20:13.165Z,40.43
2018-05-14T03:22:40.658Z,38.47
2018-05-14T03:25:08.149Z,37.77
2018-05-14T03:27:35.711Z,37.77
2018-05-14T03:30:04.017Z,34.53
2018-05-14T03:32:31.616Z,34.43
2018-05-14T03:34:59.101Z,33.87
2018-05-14T03:37:26.633Z,32.33
2018-05-14T03:39:54.128Z,30.63
2018-05-14T03:42:21.688Z,30.23
2018-05-14T03:44:49.254Z,30.07
2018-05-14T03:47:16.745Z,27.60
2018-05-14T03:49:44.244Z,26.80
2018-05-14T03:52:12.518Z,25.47
2018-05-14T03:54:40.046Z,23.93
2018-05-14T03:57:07.631Z,25.00
2018-05-14T03:59:47.225Z,24.67
2018-05-14T04:02:26.654Z,21.47
2018-05-14T04:05:06.185Z,20.10
2018-05-14T04:07:33.665Z,19.10
2018-05-14T04:10:01.223Z,18.77
2018-05-14T04:12:28.800Z,17.53
2018-05-14T04:14:56.284Z,15.70
2018-05-14T04:17:23.781Z,16.27
2018-05-14T04:19:51.320Z,14.80
2018-05-14T04:22:18.862Z,14.50
2018-05-14T04:24:47.172Z,14.23
2018-05-14T04:27:14.686Z,13.30
2018-05-14T04:29:42.951Z,12.63
2018-05-14T04:32:10.490Z,11.90
2018-05-14T04:34:38.067Z,11.60
2018-05-14T04:37:05.537Z,10.60
2018-05-14T04:39:33.053Z,10.13
2018-05-14T04:42:00.565Z,9.67
2018-05-14T04:44:28.806Z,9.03
2018-05-14T04:46:56.272Z,8.97
2018-05-14T04:49:24.526Z,8.00
2018-05-14T04:51:52.015Z,7.83
2018-05-14T04:54:19.658Z,7.80
2018-05-14T04:56:47.182Z,6.97
2018-05-14T04:59:14.746Z,6.90
2018-05-14T05:01:42.225Z,6.50
2018-05-14T05:04:09.798Z,6.47
2018-05-14T05:06:37.301Z,5.70
2018-05-14T05:09:05.540Z,5.80
2018-05-14T05:11:33.119Z,5.40
2018-05-14T05:14:00.514Z,5.53
2018-05-14T05:16:28.753Z,5.00
2018-05-14T05:18:56.233Z,4.93
2018-05-14T05:21:23.793Z,5.00
2018-05-14T05:23:51.314Z,4.83
2018-05-14T05:26:18.788Z,4.77
2018-05-14T05:28:47.129Z,4.77
2018-05-14T05:31:14.603Z,4.60
2018-05-14T05:33:42.113Z,4.57
2018-05-14T05:36:10.371Z,4.20
2018-05-14T05:38:38.116Z,4.47
2018-05-14T05:41:05.578Z,3.97
2018-05-14T05:43:33.065Z,3.73
2018-05-14T05:46:00.641Z,3.80
2018-05-14T05:48:28.116Z,4.17
2018-05-14T05:50:55.683Z,4.27
2018-05-14T05:53:23.236Z,4.10
2018-05-14T05:55:50.724Z,4.00
2018-05-14T05:58:18.310Z,3.97
2018-05-14T06:00:45.781Z,3.90
2018-05-14T06:03:13.349Z,3.50
2018-05-14T06:05:40.909Z,3.87
2018-05-14T06:08:08.484Z,3.80
2018-05-14T06:10:36.054Z,3.77
2018-05-14T06:13:03.636Z,3.80
2018-05-14T06:15:31.233Z,3.73
2018-05-14T06:17:58.681Z,3.93
2018-05-14T06:20:26.226Z,3.70
2018-05-14T06:22:54.548Z,3.50
2018-05-14T06:25:22.037Z,3.77
2018-05-14T06:27:49.525Z,3.43
2018-05-14T06:30:17.090Z,3.70
2018-05-14T06:32:44.696Z,3.70
2018-05-14T06:35:12.187Z,3.90
2018-05-14T06:37:40.431Z,3.70
2018-05-14T06:40:07.923Z,3.83
2018-05-14T06:42:35.505Z,3.77
2018-05-14T06:45:03.041Z,3.53
2018-05-14T06:47:31.338Z,3.40
2018-05-14T06:49:58.937Z,3.80
2018-05-14T06:52:27.167Z,3.50
2018-05-14T06:54:55.429Z,3.50
2018-05-14T06:57:23.680Z,3.37
2018-05-14T06:59:51.229Z,3.60
2018-05-14T07:02:18.829Z,3.70
2018-05-14T07:04:46.306Z,3.77
2018-05-14T07:07:14.604Z,3.80
2018-05-14T07:09:42.193Z,3.40
2018-05-14T07:12:10.553Z,3.67
2018-05-14T07:14:38.101Z,3.57
2018-05-14T07:17:05.583Z,3.40
2018-05-14T07:19:33.238Z,3.50
2018-05-14T07:22:00.721Z,3.40
2018-05-14T07:24:28.300Z,3.57
2018-05-14T07:26:55.910Z,3.87
2018-05-14T07:29:23.363Z,3.23
2018-05-14T07:31:50.836Z,3.33
2018-05-14T07:34:18.428Z,3.60
2018-05-14T07:36:45.941Z,3.30
2018-05-14T07:39:13.449Z,3.60
2018-05-14T07:41:40.937Z,3.40
2018-05-14T07:44:09.285Z,3.47
2018-05-14T07:46:36.789Z,3.40
2018-05-14T07:49:04.254Z,3.50
2018-05-14T07:51:31.773Z,3.47
2018-05-14T07:53:59.248Z,3.77
2018-05-14T07:56:26.734Z,3.50
2018-05-14T07:58:54.289Z,3.47
2018-05-14T08:01:21.847Z,3.20
2018-05-14T08:03:49.324Z,3.47
2018-05-14T08:06:16.835Z,3.33
2018-05-14T08:08:44.389Z,3.30
2018-05-14T08:11:12.753Z,3.00
2018-05-14T08:13:41.002Z,3.53
2018-05-14T08:16:08.546Z,3.50
2018-05-14T08:18:36.107Z,3.57
2018-05-14T08:21:03.594Z,3.37
2018-05-14T08:23:31.144Z,3.40
2018-05-14T08:25:58.721Z,3.10
2018-05-14T08:28:26.271Z,3.20
2018-05-14T08:30:54.497Z,3.33
2018-05-14T08:33:21.972Z,3.23
2018-05-14T08:35:49.450Z,3.30
2018-05-14T08:38:16.991Z,3.40
2018-05-14T08:40:44.477Z,3.27
2018-05-14T08:43:11.996Z,3.13
2018-05-14T08:45:40.237Z,3.43
2018-05-14T08:48:07.850Z,3.30
2018-05-14T08:50:36.092Z,3.47
2018-05-14T08:53:03.572Z,3.50
2018-05-14T08:55:31.071Z,3.60
2018-05-14T08:57:58.594Z,3.30
2018-05-14T09:00:26.073Z,3.70
2018-05-14T09:02:53.551Z,3.50
2018-05-14T09:05:21.020Z,3.37
2018-05-14T09:07:48.492Z,3.50
2018-05-14T09:10:16.049Z,3.40
2018-05-14T09:12:43.586Z,3.40
2018-05-14T09:15:11.875Z,3.47
2018-05-14T09:17:39.357Z,3.43
2018-05-14T09:20:07.671Z,3.50
2018-05-14T09:22:35.207Z,3.30
2018-05-14T09:25:02.755Z,3.50
2018-05-14T09:27:30.278Z,3.60
2018-05-14T09:29:57.769Z,3.70
2018-05-14T09:32:25.326Z,3.23
2018-05-14T09:34:52.801Z,3.17
2018-05-14T09:37:20.386Z,3.53
2018-05-14T09:39:47.824Z,3.30
2018-05-14T09:42:15.300Z,3.30
2018-05-14T09:44:42.802Z,3.47
2018-05-14T09:47:10.285Z,3.60
2018-05-14T09:49:37.774Z,3.13
2018-05-14T09:52:05.241Z,3.67
2018-05-14T09:54:33.489Z,3.30
2018-05-14T09:57:01.161Z,3.30
2018-05-14T09:59:28.630Z,3.70
2018-05-14T10:01:56.205Z,3.33
2018-05-14T10:04:23.781Z,3.73
2018-05-14T10:06:51.277Z,3.53
2018-05-14T10:09:18.806Z,3.87
2018-05-14T10:11:46.386Z,3.63
2018-05-14T10:14:13.949Z,3.57
2018-05-14T10:16:41.523Z,3.63
2018-05-14T10:19:09.100Z,3.57
2018-05-14T10:21:36.584Z,3.27
2018-05-14T10:24:04.148Z,3.30
2018-05-14T10:26:31.721Z,3.83
2018-05-14T10:28:59.285Z,3.57
2018-05-14T10:31:26.854Z,3.80
2018-05-14T10:33:54.321Z,3.47
2018-05-14T10:36:21.911Z,3.10
2018-05-14T10:38:49.372Z,3.40
2018-05-14T10:41:16.930Z,3.27
2018-05-14T10:43:44.520Z,3.37
2018-05-14T10:46:12.089Z,3.37
2018-05-14T10:48:39.641Z,3.47
2018-05-14T10:51:07.118Z,3.00
2018-05-14T10:53:34.684Z,3.40
2018-05-14T10:56:02.266Z,3.57
2018-05-14T10:58:29.837Z,3.63
2018-05-14T11:00:57.321Z,3.23
2018-05-14T11:03:24.792Z,3.43
2018-05-14T11:05:52.270Z,3.70
2018-05-14T11:08:19.748Z,3.70
2018-05-14T11:10:47.225Z,3.53
2018-05-14T11:13:14.861Z,3.60
2018-05-14T11:15:42.385Z,3.50
2018-05-14T11:18:09.937Z,3.37
2018-05-14T11:20:37.413Z,3.70
2018-05-14T11:23:04.924Z,3.57
2018-05-14T11:25:32.400Z,3.40
2018-05-14T11:27:59.883Z,3.63
2018-05-14T11:30:27.365Z,3.50
2018-05-14T11:32:54.932Z,3.37
2018-05-14T11:35:22.452Z,3.93
2018-05-14T11:37:49.897Z,3.70
2018-05-14T11:40:17.381Z,3.20
2018-05-14T11:42:44.856Z,3.77
2018-05-14T11:45:13.430Z,3.20
2018-05-14T11:47:41.838Z,3.50
2018-05-14T11:50:09.318Z,3.70
2018-05-14T11:52:37.662Z,3.40
2018-05-14T11:55:05.142Z,3.77
2018-05-14T11:57:32.635Z,3.83
2018-05-14T12:00:00.170Z,3.70
2018-05-14T12:02:27.659Z,4.03
2018-05-14T12:04:55.138Z,3.60
2018-05-14T12:07:22.605Z,3.27
2018-05-14T12:09:50.192Z,3.60
2018-05-14T12:12:17.799Z,3.63
2018-05-14T12:14:46.005Z,4.00
2018-05-14T12:17:13.534Z,3.73
2018-05-14T12:19:41.017Z,3.73
2018-05-14T12:22:09.292Z,3.60
2018-05-14T12:24:37.645Z,3.77
2018-05-14T12:27:05.212Z,3.93
2018-05-14T12:29:32.772Z,3.60
2018-05-14T12:32:00.430Z,3.27
2018-05-14T12:34:27.828Z,4.13
2018-05-14T12:36:55.301Z,3.90
2018-05-14T12:39:22.772Z,3.60
2018-05-14T12:41:50.349Z,3.83
2018-05-14T12:44:17.832Z,3.93
2018-05-14T12:46:45.300Z,4.30
2018-05-14T12:49:12.783Z,3.97
2018-05-14T12:51:40.293Z,3.90
2018-05-14T12:54:07.793Z,3.67
2018-05-14T12:56:35.348Z,3.87
2018-05-14T12:59:02.817Z,3.70
2018-05-14T13:01:30.306Z,3.73
2018-05-14T13:03:57.780Z,4.10
2018-05-14T13:06:25.273Z,3.93
2018-05-14T13:08:52.737Z,4.10
2018-05-14T13:11:20.293Z,3.87
2018-05-14T13:13:47.753Z,3.80
2018-05-14T13:16:15.430Z,3.90
2018-05-14T13:18:42.975Z,4.27
2018-05-14T13:21:11.226Z,4.00
2018-05-14T13:23:38.816Z,3.97
2018-05-14T13:26:07.156Z,4.00
2018-05-14T13:28:34.637Z,4.10
2018-05-14T13:31:02.180Z,4.57
2018-05-14T13:33:29.768Z,3.87
2018-05-14T13:35:57.519Z,4.07
2018-05-14T13:38:25.827Z,4.20
2018-05-14T13:40:53.428Z,3.73
2018-05-14T13:43:20.924Z,3.93
2018-05-14T13:45:49.265Z,4.10
2018-05-14T13:48:16.741Z,4.03
2018-05-14T13:50:44.270Z,3.97
2018-05-14T13:53:11.805Z,3.97
2018-05-14T13:55:39.351Z,4.40
2018-05-14T13:58:06.825Z,3.93
2018-05-14T14:00:34.316Z,4.40
2018-05-14T14:03:01.857Z,4.27
2018-05-14T14:05:29.451Z,4.17
2018-05-14T14:07:57.003Z,4.17
2018-05-14T14:10:24.488Z,4.27
2018-05-14T14:12:51.953Z,4.30
2018-05-14T14:15:19.513Z,4.20
2018-05-14T14:17:47.023Z,4.30
2018-05-14T14:20:14.500Z,4.27
2018-05-14T14:22:42.030Z,3.93
2018-05-14T14:25:09.537Z,4.37
2018-05-14T14:27:37.165Z,4.17
2018-05-14T14:30:04.645Z,4.50
2018-05-14T14:32:32.200Z,4.37
2018-05-14T14:34:59.742Z,4.43
2018-05-14T14:37:28.075Z,4.50
2018-05-14T14:39:55.726Z,4.47
2018-05-14T14:42:23.976Z,4.20
2018-05-14T14:44:51.466Z,4.30
2018-05-14T14:47:19.805Z,4.20
2018-05-14T14:49:47.485Z,4.40
2018-05-14T14:52:15.062Z,4.57
2018-05-14T14:54:42.600Z,4.10
2018-05-14T14:57:10.077Z,4.60
2018-05-14T14:59:37.568Z,4.30
2018-05-14T15:02:05.148Z,4.57
2018-05-14T15:04:32.628Z,3.93
2018-05-14T15:07:00.128Z,4.50
2018-05-14T15:09:27.639Z,4.50
2018-05-14T15:11:55.116Z,4.30
2018-05-14T15:14:22.589Z,4.50
2018-05-14T15:16:50.265Z,4.27
2018-05-14T15:19:17.743Z,3.93
2018-05-14T15:21:45.241Z,4.47
2018-05-14T15:24:12.700Z,4.13
2018-05-14T15:26:40.271Z,4.10
2018-05-14T15:29:07.745Z,4.30
2018-05-14T15:31:35.278Z,4.83
2018-05-14T15:34:02.748Z,4.60
2018-05-14T15:36:30.220Z,4.37
2018-05-14T15:38:57.689Z,4.47
2018-05-14T15:41:25.284Z,4.63
2018-05-14T15:43:53.556Z,4.50
2018-05-14T15:46:21.041Z,4.47
2018-05-14T15:48:48.533Z,4.40
2018-05-14T15:51:15.997Z,4.73
2018-05-14T15:53:43.529Z,4.43
2018-05-14T15:56:11.069Z,4.30
2018-05-14T15:58:38.524Z,4.30
2018-05-14T16:01:07.008Z,4.37
2018-05-14T16:03:34.481Z,4.60
2018-05-14T16:06:02.115Z,4.70
2018-05-14T16:08:29.599Z,4.50
2018-05-14T16:10:57.147Z,4.57
2018-05-14T16:13:24.626Z,4.00
2018-05-14T16:15:52.093Z,4.43
2018-05-14T16:18:19.665Z,4.63
2018-05-14T16:20:47.268Z,4.40
2018-05-14T16:23:14.794Z,4.30
2018-05-14T16:25:42.283Z,4.07
2018-05-14T16:28:10.058Z,4.63
2018-05-14T16:30:37.555Z,4.30
2018-05-14T16:33:05.085Z,4.53
2018-05-14T16:35:32.576Z,4.50
2018-05-14T16:38:00.136Z,4.17
2018-05-14T16:40:27.887Z,4.70
2018-05-14T16:42:55.362Z,4.20
2018-05-14T16:45:22.875Z,4.43
2018-05-14T16:47:50.367Z,3.90
2018-05-14T16:50:17.921Z,3.80
2018-05-14T16:52:45.327Z,4.00
2018-05-14T16:55:13.560Z,4.00
2018-05-14T16:57:41.196Z,4.47
2018-05-14T17:00:08.639Z,4.10
2018-05-14T17:02:36.176Z,3.80
2018-05-14T17:05:03.653Z,4.43
2018-05-14T17:07:31.309Z,4.10
2018-05-14T17:09:58.900Z,4.17
2018-05-14T17:12:26.420Z,3.97
2018-05-14T17:14:54.681Z,3.80
2018-05-14T17:17:22.210Z,4.03
2018-05-14T17:19:50.406Z,4.10
2018-05-14T17:22:17.914Z,3.87
2018-05-14T17:24:45.430Z,4.10
2018-05-14T17:27:12.927Z,3.77
2018-05-14T17:29:40.444Z,4.43
2018-05-14T17:32:08.031Z,4.33
2018-05-14T17:34:35.573Z,4.00
2018-05-14T17:37:03.033Z,3.80
2018-05-14T17:39:30.529Z,4.00
2018-05-14T17:41:58.077Z,3.90
2018-05-14T17:44:25.577Z,4.27
2018-05-14T17:46:53.842Z,4.17
2018-05-14T17:49:21.337Z,4.53
2018-05-14T17:51:49.604Z,4.17
2018-05-14T17:54:17.085Z,3.80
2018-05-14T17:56:45.428Z,4.10
2018-05-14T17:59:13.004Z,4.10
2018-05-14T18:01:40.482Z,4.10
2018-05-14T18:04:07.971Z,4.57
2018-05-14T18:06:35.458Z,4.10
2018-05-14T18:09:03.791Z,4.50
2018-05-14T18:11:31.277Z,4.03
2018-05-14T18:13:58.762Z,4.40
2018-05-14T18:16:26.225Z,3.80
2018-05-14T18:18:53.709Z,3.90
2018-05-14T18:21:26.871Z,4.00
2018-05-14T18:23:54.407Z,3.83
2018-05-14T18:26:25.522Z,4.00
2018-05-14T18:28:52.988Z,4.27
2018-05-14T18:31:26.449Z,4.20
2018-05-14T18:33:53.845Z,4.30
2018-05-14T18:36:21.377Z,4.17
2018-05-14T18:38:49.728Z,3.90
2018-05-14T18:41:17.213Z,4.00
2018-05-14T18:43:44.692Z,4.13
2018-05-14T18:46:12.238Z,4.27
2018-05-14T18:48:39.736Z,4.10
2018-05-14T18:51:08.149Z,3.87
2018-05-14T18:53:35.659Z,3.70
2018-05-14T18:56:03.416Z,3.87
2018-05-14T18:58:30.910Z,4.30
2018-05-14T19:00:58.384Z,4.13
2018-05-14T19:03:25.865Z,4.03
2018-05-14T19:05:53.350Z,4.63
2018-05-14T19:08:20.841Z,4.80
2018-05-14T19:10:54.117Z,4.50
2018-05-14T19:13:21.600Z,4.57
2018-05-14T19:15:54.762Z,4.50
2018-05-14T19:18:22.249Z,4.30
2018-05-14T19:20:49.727Z,4.60
2018-05-14T19:23:22.769Z,4.27
2018-05-14T19:25:51.107Z,4.30
2018-05-14T19:28:24.457Z,4.57
2018-05-14T19:30:51.927Z,4.20
2018-05-14T19:33:25.886Z,4.40
2018-05-14T19:35:59.920Z,4.37
2018-05-14T19:38:27.374Z,4.10
2018-05-14T19:40:54.903Z,4.20
2018-05-14T19:43:22.387Z,4.20
2018-05-14T19:45:49.927Z,4.50
2018-05-14T19:48:17.495Z,4.47
2018-05-14T19:50:44.969Z,4.30
2018-05-14T19:53:12.448Z,3.73
2018-05-14T19:55:40.006Z,4.90
2018-05-14T19:58:07.589Z,4.37
2018-05-14T20:00:35.083Z,4.30
2018-05-14T20:03:02.612Z,4.30
2018-05-14T20:05:30.074Z,4.20
2018-05-14T20:07:57.589Z,4.50
2018-05-14T20:10:25.091Z,4.60
2018-05-14T20:12:52.578Z,4.33
2018-05-14T20:15:20.062Z,4.47
2018-05-14T20:17:47.543Z,4.37
2018-05-14T20:20:15.119Z,4.07
2018-05-14T20:22:42.597Z,4.37
2018-05-14T20:25:10.085Z,4.10
2018-05-14T20:27:37.721Z,4.23
2018-05-14T20:30:05.205Z,4.23
2018-05-14T20:32:32.739Z,4.63
2018-05-14T20:35:00.329Z,4.70
2018-05-14T20:37:27.934Z,4.33
2018-05-14T20:39:55.397Z,4.17
2018-05-14T20:42:22.873Z,4.37
2018-05-14T20:44:50.346Z,4.40
2018-05-14T20:47:18.632Z,4.93
2018-05-14T20:49:46.169Z,3.97
2018-05-14T20:52:13.851Z,4.83
2018-05-14T20:54:41.338Z,4.40
2018-05-14T20:57:08.975Z,4.47
2018-05-14T20:59:37.265Z,4.20
2018-05-14T21:02:04.752Z,4.97
2018-05-14T21:04:32.241Z,4.27
2018-05-14T21:06:59.803Z,4.10
2018-05-14T21:09:27.453Z,4.67
2018-05-14T21:11:54.929Z,4.70
2018-05-14T21:14:22.429Z,4.80
2018-05-14T21:16:50.002Z,4.70
2018-05-14T21:19:17.481Z,4.53
2018-05-14T21:21:45.041Z,4.73
2018-05-14T21:24:12.632Z,4.57
2018-05-14T21:26:40.159Z,4.50
2018-05-14T21:29:07.791Z,4.23
2018-05-14T21:31:36.043Z,4.30
2018-05-14T21:34:03.597Z,4.50
2018-05-14T21:36:31.181Z,4.60
2018-05-14T21:38:58.648Z,4.20
2018-05-14T21:41:26.130Z,4.13
2018-05-14T21:43:53.690Z,4.30
2018-05-14T21:46:21.257Z,4.50
2018-05-14T21:48:48.881Z,4.30
2018-05-14T21:51:16.353Z,4.43
2018-05-14T21:53:43.848Z,4.13
2018-05-14T21:56:11.342Z,4.10
2018-05-14T21:58:38.817Z,4.00
2018-05-14T22:01:06.300Z,4.60
2018-05-14T22:03:33.780Z,4.33
2018-05-14T22:06:01.332Z,4.37
2018-05-14T22:08:28.816Z,4.33
2018-05-14T22:10:56.369Z,4.50
2018-05-14T22:13:23.938Z,4.23
2018-05-14T22:15:51.515Z,4.67
2018-05-14T22:18:19.192Z,4.80
2018-05-14T22:20:46.777Z,4.43
2018-05-14T22:23:14.356Z,4.40
2018-05-14T22:25:41.933Z,4.60
2018-05-14T22:28:09.409Z,4.23
2018-05-14T22:30:36.892Z,4.80
2018-05-14T22:33:05.137Z,4.17
2018-05-14T22:35:32.696Z,4.07
2018-05-14T22:38:00.278Z,4.40
2018-05-14T22:40:27.853Z,4.43
2018-05-14T22:42:55.345Z,4.50
2018-05-14T22:45:22.825Z,4.13
2018-05-14T22:47:50.360Z,4.50
2018-05-14T22:50:17.845Z,4.27
2018-05-14T22:52:45.354Z,4.60
2018-05-14T22:55:13.688Z,4.70
2018-05-14T22:57:41.301Z,4.67
2018-05-14T23:00:08.832Z,4.63
2018-05-14T23:02:36.400Z,4.40
2018-05-14T23:05:04.010Z,4.33
2018-05-14T23:07:33.152Z,4.63
2018-05-14T23:10:01.483Z,4.43
2018-05-14T23:12:29.053Z,3.97
2018-05-14T23:14:56.624Z,4.40
2018-05-14T23:17:24.189Z,4.30
2018-05-14T23:19:51.765Z,4.07
2018-05-14T23:22:19.348Z,4.40
2018-05-14T23:24:46.927Z,4.87
2018-05-14T23:27:14.406Z,4.53
2018-05-14T23:29:41.941Z,4.37
2018-05-14T23:32:10.257Z,4.37
2018-05-14T23:34:37.749Z,4.70
2018-05-14T23:37:05.287Z,4.80
2018-05-14T23:39:32.784Z,4.50
2018-05-14T23:42:00.335Z,4.57
2018-05-14T23:44:27.939Z,4.60
2018-05-14T23:46:55.421Z,3.97
2018-05-14T23:49:23.664Z,4.90
2018-05-14T23:51:51.309Z,4.40
2018-05-14T23:54:18.787Z,4.37
2018-05-14T23:56:46.389Z,4.67
2018-05-14T23:59:13.871Z,4.47
